createdAt,value
2022-10-25T00:02:00.359Z,12.09
2022-10-25T00:07:02.111Z,12.14
2022-10-25T00:12:04.400Z,12.11
2022-10-25T00:17:06.008Z,12.16
2022-10-25T00:22:07.616Z,12.19
2022-10-25T00:27:09.272Z,12.23
2022-10-25T00:32:10.932Z,12.30
2022-10-25T00:37:12.662Z,12.31
2022-10-25T00:42:20.249Z,12.29
2022-10-25T00:47:21.904Z,12.14
2022-10-25T00:52:23.986Z,12.15
2022-10-25T00:57:33.229Z,12.22
2022-10-25T01:02:35.500Z,12.24
2022-10-25T01:07:37.430Z,12.27
2022-10-25T01:12:39.113Z,12.28
2022-10-25T01:18:09.305Z,12.30
2022-10-25T01:23:41.815Z,12.30
2022-10-25T01:29:03.670Z,12.31
2022-10-25T01:34:25.068Z,12.32
2022-10-25T01:39:32.995Z,12.35
2022-10-25T01:44:58.895Z,12.38
2022-10-25T01:50:15.395Z,12.37
2022-10-25T01:55:19.814Z,12.37
2022-10-25T02:00:23.612Z,12.28
2022-10-25T02:05:25.242Z,11.78
2022-10-25T02:10:38.836Z,11.68
2022-10-25T02:15:46.852Z,11.67
2022-10-25T02:20:51.054Z,11.70
2022-10-25T02:25:54.776Z,11.75
2022-10-25T02:30:59.084Z,11.74
2022-10-25T02:36:12.720Z,11.74
2022-10-25T02:41:15.026Z,11.82
2022-10-25T02:46:20.531Z,11.86
2022-10-25T02:51:23.052Z,11.94
2022-10-25T02:56:24.854Z,12.01
2022-10-25T03:01:26.919Z,12.01
2022-10-25T03:06:28.664Z,12.00
2022-10-25T03:11:30.328Z,11.93
2022-10-25T03:16:31.944Z,11.96
2022-10-25T03:21:37.478Z,11.95
2022-10-25T03:26:41.618Z,11.96
2022-10-25T03:31:43.779Z,11.92
2022-10-25T03:36:47.047Z,11.92
2022-10-25T03:41:49.074Z,11.96
2022-10-25T03:46:50.671Z,11.96
2022-10-25T03:51:55.758Z,11.94
2022-10-25T03:57:01.459Z,11.95
2022-10-25T04:02:03.126Z,11.99
2022-10-25T04:07:04.764Z,11.98
2022-10-25T04:12:06.465Z,11.94
2022-10-25T04:17:08.206Z,11.93
2022-10-25T04:22:12.715Z,11.93
2022-10-25T04:27:14.518Z,11.90
2022-10-25T04:32:16.225Z,11.89
2022-10-25T04:37:17.951Z,11.87
2022-10-25T04:42:19.714Z,11.84
2022-10-25T04:47:21.438Z,11.87
2022-10-25T04:52:23.091Z,11.87
2022-10-25T04:57:25.889Z,11.87
2022-10-25T05:02:27.698Z,11.81
2022-10-25T05:07:29.382Z,11.82
2022-10-25T05:12:31.096Z,11.85
2022-10-25T05:17:33.552Z,11.81
2022-10-25T05:22:35.220Z,11.84
2022-10-25T05:27:39.120Z,11.87
2022-10-25T05:32:40.860Z,11.92
2022-10-25T05:37:43.450Z,11.94
2022-10-25T05:42:48.580Z,11.95
2022-10-25T05:47:50.484Z,11.92
2022-10-25T05:52:53.587Z,11.86
2022-10-25T05:57:55.587Z,11.86
2022-10-25T06:03:00.717Z,11.83
2022-10-25T06:08:02.593Z,11.84
2022-10-25T06:13:04.643Z,11.83
2022-10-25T06:18:07.033Z,11.81
2022-10-25T06:23:10.537Z,11.84
2022-10-25T06:28:15.422Z,11.86
2022-10-25T06:33:17.165Z,11.83
2022-10-25T06:38:18.989Z,11.82
2022-10-25T06:43:20.685Z,11.82
2022-10-25T06:48:22.739Z,11.79
2022-10-25T06:53:24.413Z,11.82
2022-10-25T06:58:26.181Z,11.83
2022-10-25T07:03:35.259Z,11.82
2022-10-25T07:08:38.790Z,11.76
2022-10-25T07:13:43.536Z,11.72
2022-10-25T07:19:21.821Z,11.80
2022-10-25T07:30:26.282Z,11.89
2022-10-25T07:35:38.459Z,11.97
2022-10-25T07:40:52.026Z,11.92
2022-10-25T07:45:57.925Z,11.87
2022-10-25T07:51:05.242Z,11.84
2022-10-25T07:56:10.067Z,11.86
2022-10-25T08:01:14.583Z,12.05
2022-10-25T08:06:18.390Z,12.09
2022-10-25T08:11:23.771Z,12.16
2022-10-25T08:16:25.665Z,12.09
2022-10-25T08:21:27.527Z,12.11
2022-10-25T08:26:36.617Z,11.97
2022-10-25T08:31:39.102Z,12.05
2022-10-25T08:36:43.769Z,12.10
2022-10-25T08:42:15.736Z,12.10
2022-10-25T08:48:01.841Z,12.17
2022-10-25T08:53:56.561Z,12.26
2022-10-25T08:59:01.691Z,12.40
2022-10-25T09:04:24.699Z,12.53
2022-10-25T09:10:13.457Z,12.84
2022-10-25T09:15:41.973Z,12.95
2022-10-25T09:21:15.697Z,13.10
2022-10-25T09:26:44.784Z,12.89
2022-10-25T09:31:59.239Z,12.80
2022-10-25T09:37:12.810Z,12.71
2022-10-25T09:42:27.464Z,12.70
2022-10-25T09:47:48.059Z,12.75
2022-10-25T09:53:09.968Z,12.72
2022-10-25T09:58:30.554Z,12.86
2022-10-25T10:04:01.626Z,12.89
2022-10-25T10:09:11.535Z,12.84
2022-10-25T10:15:02.523Z,12.79
2022-10-25T10:20:12.816Z,12.82
2022-10-25T10:25:30.456Z,12.83
2022-10-25T10:30:40.801Z,12.87
2022-10-25T10:35:59.072Z,13.07
2022-10-25T10:47:45.336Z,13.06
2022-10-25T10:53:38.430Z,13.16
2022-10-25T10:59:15.673Z,13.07
2022-10-25T11:04:21.955Z,13.15
2022-10-25T11:09:47.852Z,13.19
2022-10-25T11:14:52.079Z,13.34
2022-10-25T11:20:33.348Z,13.76
2022-10-25T11:25:58.050Z,13.76
2022-10-25T11:31:02.811Z,14.11
2022-10-25T11:36:43.719Z,13.99
2022-10-25T11:48:04.656Z,13.97
2022-10-25T11:53:35.422Z,13.98
2022-10-25T11:58:36.999Z,14.05
2022-10-25T12:04:13.117Z,14.33
2022-10-25T12:10:08.674Z,14.20
2022-10-25T12:15:37.437Z,14.08
2022-10-25T12:20:41.030Z,14.03
2022-10-25T12:25:49.686Z,14.16
2022-10-25T12:30:58.759Z,14.16
2022-10-25T12:36:08.160Z,14.05
2022-10-25T12:41:24.107Z,14.16
2022-10-25T12:46:43.926Z,14.12
2022-10-25T12:52:13.157Z,14.19
2022-10-25T12:57:26.087Z,14.13
2022-10-25T13:02:40.193Z,14.12
2022-10-25T13:07:42.733Z,14.14
2022-10-25T13:13:13.257Z,14.08
2022-10-25T13:18:44.904Z,14.00
2022-10-25T13:23:58.967Z,13.96
2022-10-25T13:29:04.019Z,13.92
2022-10-25T13:34:15.016Z,13.96
2022-10-25T13:39:25.184Z,13.90
2022-10-25T13:44:27.992Z,13.87
2022-10-25T13:49:44.538Z,13.80
2022-10-25T13:54:53.898Z,13.86
2022-10-25T14:00:01.289Z,13.90
2022-10-25T14:05:03.091Z,13.98
2022-10-25T14:10:09.266Z,13.90
2022-10-25T14:15:43.695Z,13.91
2022-10-25T14:20:49.114Z,13.86
2022-10-25T14:25:55.486Z,13.85
2022-10-25T14:30:59.454Z,13.82
2022-10-25T14:36:22.233Z,13.80
2022-10-25T14:41:30.045Z,13.75
2022-10-25T14:46:33.716Z,13.68
2022-10-25T14:51:39.535Z,13.67
2022-10-25T14:56:50.830Z,13.69
2022-10-25T15:02:15.318Z,13.64
2022-10-25T15:07:24.499Z,13.71
2022-10-25T15:12:31.152Z,13.75
2022-10-25T15:17:33.938Z,13.70
2022-10-25T15:22:38.854Z,13.61
2022-10-25T15:27:41.735Z,13.62
2022-10-25T15:32:44.690Z,13.59
2022-10-25T15:37:47.540Z,13.54
2022-10-25T15:42:49.699Z,13.47
2022-10-25T15:47:57.124Z,13.44
2022-10-25T15:52:59.117Z,13.40
2022-10-25T15:58:08.300Z,13.40
2022-10-25T16:03:21.716Z,13.36
2022-10-25T16:08:23.747Z,13.31
2022-10-25T16:13:33.430Z,13.29
2022-10-25T16:18:34.995Z,13.33
2022-10-25T16:23:37.042Z,13.34
2022-10-25T16:28:41.336Z,13.32
2022-10-25T16:33:43.438Z,13.28
2022-10-25T16:38:50.149Z,13.21
2022-10-25T16:44:15.631Z,13.19
2022-10-25T16:49:27.436Z,13.10
2022-10-25T16:54:32.162Z,13.09
2022-10-25T16:59:34.128Z,13.00
2022-10-25T17:04:36.089Z,12.98
2022-10-25T17:09:38.010Z,12.91
2022-10-25T17:14:40.890Z,12.79
2022-10-25T17:19:42.656Z,12.85
2022-10-25T17:24:44.365Z,12.88
2022-10-25T17:29:46.221Z,12.88
2022-10-25T17:34:48.112Z,12.83
2022-10-25T17:39:49.969Z,12.84
2022-10-25T17:44:51.993Z,12.78
2022-10-25T17:49:54.546Z,12.72
2022-10-25T17:54:56.450Z,12.70
2022-10-25T17:59:59.964Z,12.70
2022-10-25T18:05:19.959Z,12.67
2022-10-25T18:10:23.576Z,12.59
2022-10-25T18:15:28.088Z,12.51
2022-10-25T18:20:30.405Z,12.51
2022-10-25T18:25:32.267Z,12.40
2022-10-25T18:30:36.649Z,12.40
2022-10-25T18:40:43.347Z,12.36
2022-10-25T18:45:45.485Z,12.33
2022-10-25T18:50:49.822Z,12.34
2022-10-25T18:55:51.536Z,12.28
2022-10-25T19:00:53.544Z,12.20
2022-10-25T19:05:58.233Z,12.10
2022-10-25T19:11:07.205Z,12.10
2022-10-25T19:16:12.134Z,12.01
2022-10-25T19:21:17.569Z,12.06
2022-10-25T19:26:21.716Z,12.00
2022-10-25T19:31:23.903Z,11.96
2022-10-25T19:36:26.534Z,11.92
2022-10-25T19:41:28.617Z,11.86
2022-10-25T19:46:30.611Z,11.92
2022-10-25T19:51:35.483Z,11.84
2022-10-25T19:56:40.067Z,11.83
2022-10-25T20:01:43.662Z,11.79
2022-10-25T20:06:45.622Z,11.72
2022-10-25T20:11:58.887Z,11.76
2022-10-25T20:17:10.988Z,11.69
2022-10-25T20:22:12.857Z,11.72
2022-10-25T20:27:19.212Z,11.62
2022-10-25T20:32:25.445Z,11.66
2022-10-25T20:37:27.234Z,11.59
2022-10-25T20:42:34.827Z,11.53
2022-10-25T20:47:36.606Z,11.50
2022-10-25T20:52:47.650Z,11.45
2022-10-25T20:57:50.605Z,11.42
2022-10-25T21:02:52.558Z,11.44
2022-10-25T21:07:54.293Z,11.37
2022-10-25T21:12:59.787Z,11.37
2022-10-25T21:18:04.121Z,11.43
2022-10-25T21:23:07.518Z,11.37
2022-10-25T21:28:10.275Z,11.41
2022-10-25T21:33:12.009Z,11.32
2022-10-25T21:38:14.500Z,11.30
2022-10-25T21:43:16.318Z,11.29
2022-10-25T21:48:18.197Z,11.10
2022-10-25T21:53:19.922Z,11.17
2022-10-25T21:58:22.044Z,11.18
2022-10-25T22:03:26.868Z,11.14
2022-10-25T22:08:29.473Z,11.08
2022-10-25T22:13:31.258Z,11.16
2022-10-25T22:18:33.323Z,11.09
2022-10-25T22:23:35.542Z,11.12
2022-10-25T22:28:41.138Z,11.10
2022-10-25T22:33:45.003Z,11.05
2022-10-25T22:38:47.123Z,11.03
2022-10-25T22:43:49.669Z,11.02
2022-10-25T22:48:53.893Z,11.02
2022-10-25T22:53:56.065Z,10.98
2022-10-25T22:59:00.335Z,10.85
2022-10-25T23:04:06.470Z,10.75
2022-10-25T23:09:10.484Z,10.75
2022-10-25T23:14:15.159Z,10.69
2022-10-25T23:19:19.214Z,10.67
2022-10-25T23:24:20.883Z,10.62
2022-10-25T23:29:22.463Z,10.65
2022-10-25T23:39:30.779Z,10.53
2022-10-25T23:44:32.450Z,10.52
2022-10-25T23:49:34.122Z,10.52
2022-10-25T23:54:35.734Z,10.53
2022-10-25T23:59:37.882Z,10.58
